Andrijasevci, Croatia

16:31 CET dnia 25-marzec-2017 (GMT +0100)
Djakovo, Pasenica | | Change Station

Wysokość 344 ft 45.32 °N, 18.41 °E | Updated 1 minute ago

pogodnie
pogodnie
61.0 ° F
Odczuwalna 61.0 ° F
Płn.
4.0
Wiatr zmienny Wiatr od PnPnWs
Gusts 6.0 mph

Dziś
Wysoka -- | Niska -- ° F
--% Prawdop. opadów
Wczoraj
Wysoka -- | Niska -- ° F
Precip. -- cali
Ciśnienie 30.15 cali
Widzialność -9999.0 mil
chmury
Punkt rosy 43 ° F
Wilgotność 51%
Opady deszczu 0.00 cali
grubość pokrywy śnieżnej Niedostępne.
5:38 AM 6:03 PM
Zmniejszający się sierp Księżyca, 8% visible
METAR LDOS 251530Z 26004KT CAVOK 16/04 Q1021
Ciśnienie 30.15 cali
Widzialność -9999.0 mil
chmury
Punkt rosy 43 ° F
Wilgotność 51%
Opady deszczu 0.00 cali
grubość pokrywy śnieżnej Niedostępne.
5:38 AM 6:03 PM
Zmniejszający się sierp Księżyca, 8% visible
METAR LDOS 251530Z 26004KT CAVOK 16/04 Q1021

Get Severe Weather Alerts

Thanks for signing up!

Be on the lookout for a verification email in your inbox.

You'll start receiving the daily forecast at 8 AM.

×

10-Day Weather Forecast

×

Almanac

Astronomia

Mar. 25, 2017 Wschód Zachów
Aktualny czas
Zmierzch cywilny
Zmierzch żeglarski
świt/zmierzch astronomiczny
Księżyc
całkowite oświetlenie
Długość dnia
Tomorrow will be .
, % of the Moon is Illuminated

Dzisiejsze ekstrema

Country Highs Country Lows

Community

WunderPhotos

Upload Photos

1,962,540 zdjęcia zostały przesłane!

WunderBlog® & News

Nearby

Jakość powietrza

  Jakość powietrza czynnik AQ Zanieczyszczenie
Not available.

Głębokość pokrywy śnieżnej

Station Depth n.p.m.

Aktywność sejsmiczna

Miejscowość Distance Mag. Time & Date
Minimum magnitude displayed is 2.5.

Aktywność sejsmiczna

Miejscowość Distance Mag. Time & Date
Minimum magnitude displayed is 2.5.

Temperatury wody na wybrzeżu

Miejsce Temperatura

Stations

Najbliższa stacja pogodowa

Lokalizacja stacji Temp. czynnik chłodzący wiatru Punkt rosy Wilgotność Wiatr Precip. Wysokość Uaktualniono Typ